This is the latest recevied weather packets stored in our database for station/object EA1IDU. If no packets are shown the sender has not sent any weather packets the latest 10 day(s).
| Time | Temp. | Humidity | Pressure | Rain* | Wind** | Luminosity | Snow |
|---|---|---|---|---|---|---|---|
| 1777914070 | 11.11° C | 74% | 1013.7 hPa | 0 mm | - | - | - |
| 1777913465 | 11.67° C | 71% | 1013.6 hPa | 0 mm | - | - | - |
| 1777912860 | 11.67° C | 71% | 1013.6 hPa | 0 mm | - | - | - |
| 1777911691 | 11.67° C | 71% | 1013.4 hPa | 0 mm | - | - | - |
| 1777908020 | 11.67° C | 69% | 1013.5 hPa | 0 mm | - | - | - |
| 1777907475 | 11.11° C | 75% | 1013.3 hPa | 0 mm | - | - | - |
| 1777906267 | 10.56° C | 77% | 1013.7 hPa | 0 mm | - | - | - |
| 1777905660 | 10.56° C | 79% | 1013.9 hPa | 0 mm | - | - | - |
| 1777902031 | 8.89° C | 87% | 1014.6 hPa | 0.25 mm | - | - | - |
| 1777900842 | 8.89° C | 92% | 1014.5 hPa | 1.27 mm | - | - | - |
| 1777898461 | 8.33° C | 93% | 1014.8 hPa | 1.02 mm | - | - | - |
| 1777885272 | 10.56° C | 83% | 1014.2 hPa | 0 mm | - | - | - |
| 1777884667 | 10.56° C | 83% | 1014.1 hPa | 0 mm | - | - | - |
| 1777883456 | 10° C | 82% | 1014 hPa | 0 mm | - | - | - |
| 1777869663 | 8.89° C | 91% | 1012.9 hPa | 0 mm | - | - | - |
| 1777862461 | 8.89° C | 92% | 1013.4 hPa | 0 mm | - | - | - |
| 1777860061 | 8.89° C | 93% | 1013.4 hPa | 0 mm | - | - | - |
| 1777859436 | 8.89° C | 93% | 1013.5 hPa | 0 mm | - | - | - |
| 1777858226 | 8.89° C | 93% | 1013.6 hPa | 0 mm | - | - | - |
| 1777857016 | 8.89° C | 92% | 1013.6 hPa | 0 mm | - | - | - |
| 1777843220 | 10.56° C | 83% | 1013.7 hPa | 0 mm | - | - | - |
| 1777839046 | 11.67° C | 84% | 1013 hPa | 0 mm | - | - | - |
| 1777837856 | 11.67° C | 84% | 1012.8 hPa | 0 mm | - | - | - |
| 1777837231 | 11.67° C | 82% | 1012.8 hPa | 0 mm | - | - | - |
| 1777836626 | 12.22° C | 82% | 1012.5 hPa | 0 mm | - | - | - |
* Rain latest hour (hover to see other rain measurements)
** Current wind speed in m/s (hover to see current wind gust speed)